createdAt,value
2023-10-29T00:00:04.680Z,52147.69
2023-10-29T00:05:16.521Z,52173.69
2023-10-29T00:10:20.932Z,52171.69
2023-10-29T00:15:25.201Z,52219.72
2023-10-29T00:20:30.903Z,52189.72
2023-10-29T00:25:35.127Z,52225.72
2023-10-29T00:30:39.290Z,52203.69
2023-10-29T00:35:44.925Z,52201.69
2023-10-29T00:40:49.161Z,52225.72
2023-10-29T00:45:55.761Z,52257.72
2023-10-29T00:51:01.630Z,52233.72
2023-10-29T00:56:10.020Z,52201.69
2023-10-29T01:01:14.367Z,52213.72
2023-10-29T01:06:20.817Z,52237.72
2023-10-29T01:11:25.879Z,52235.72
2023-10-29T01:16:30.483Z,52209.72
2023-10-29T01:21:36.229Z,52225.72
2023-10-29T01:26:40.480Z,52239.72
2023-10-29T01:31:44.881Z,52215.72
2023-10-29T01:36:50.558Z,52209.72
2023-10-29T01:41:57.354Z,52183.69
2023-10-29T01:47:01.589Z,52215.72
2023-10-29T01:52:07.918Z,52167.69
2023-10-29T01:57:12.152Z,52155.69
2023-10-29T02:02:16.331Z,52169.72
2023-10-29T02:07:21.969Z,52147.69
2023-10-29T02:12:26.250Z,52129.69
2023-10-29T02:17:31.736Z,52167.69
2023-10-29T02:22:37.368Z,52137.69
2023-10-29T02:27:42.174Z,52097.69
2023-10-29T02:32:46.436Z,52057.69
2023-10-29T02:37:51.992Z,52049.69
2023-10-29T02:42:56.937Z,52117.69
2023-10-29T02:48:01.174Z,52105.69
2023-10-29T02:53:06.920Z,52171.69
2023-10-29T02:58:11.138Z,52159.69
2023-10-29T03:03:15.451Z,52131.69
2023-10-29T03:08:21.869Z,52189.72
2023-10-29T03:13:26.159Z,52163.69
2023-10-29T03:18:30.864Z,52201.69
2023-10-29T03:23:36.586Z,52189.72
2023-10-29T03:28:41.350Z,52205.69
2023-10-29T03:33:45.549Z,52191.72
2023-10-29T03:38:51.259Z,52193.72
2023-10-29T03:43:56.061Z,52201.69
2023-10-29T03:49:01.647Z,52193.72
2023-10-29T03:54:08.599Z,52255.72
2023-10-29T03:59:13.238Z,52235.72
2023-10-29T04:04:17.840Z,52211.72
2023-10-29T04:09:24.408Z,52209.72
2023-10-29T04:14:29.015Z,52203.69
2023-10-29T04:19:33.268Z,52217.72
2023-10-29T04:24:39.358Z,52195.72
2023-10-29T04:29:43.734Z,52185.69
2023-10-29T04:34:48.103Z,52145.69
2023-10-29T04:39:53.806Z,52147.69
2023-10-29T04:44:58.090Z,52111.69
2023-10-29T04:50:03.066Z,52087.69
2023-10-29T04:55:10.329Z,52073.69
2023-10-29T05:00:15.030Z,52019.69
2023-10-29T05:05:19.375Z,51995.69
2023-10-29T05:10:26.946Z,51991.69
2023-10-29T05:15:31.619Z,51997.69
2023-10-29T05:20:35.954Z,51997.69
2023-10-29T05:25:42.876Z,52015.69
2023-10-29T05:30:47.140Z,51993.69
2023-10-29T05:35:51.459Z,51997.69
2023-10-29T05:40:57.077Z,52011.69
2023-10-29T05:46:01.361Z,52027.69
2023-10-29T05:51:05.997Z,52009.69
2023-10-29T05:56:11.721Z,51993.69
2023-10-29T06:01:15.961Z,52029.69
2023-10-29T06:06:20.996Z,52015.69
2023-10-29T06:11:26.675Z,52043.69
2023-10-29T06:16:31.058Z,52063.69
2023-10-29T06:21:36.186Z,52123.69
2023-10-29T06:26:41.891Z,52161.69
2023-10-29T06:31:46.200Z,52215.72
2023-10-29T06:36:50.454Z,52187.72
2023-10-29T06:41:56.101Z,52217.72
2023-10-29T06:47:00.362Z,52339.72
2023-10-29T06:52:04.839Z,52701.75
2023-10-29T06:57:11.082Z,52809.78
2023-10-29T07:02:15.552Z,53269.88
2023-10-29T07:07:20.408Z,52895.78
2023-10-29T07:12:26.043Z,52673.75
2023-10-29T07:17:30.509Z,52637.75
2023-10-29T07:22:34.733Z,52725.75
2023-10-29T07:27:40.748Z,52665.75
2023-10-29T07:32:45.111Z,52683.75
2023-10-29T07:37:49.398Z,52585.75
2023-10-29T07:42:55.059Z,52723.75
2023-10-29T07:47:59.989Z,52933.81
2023-10-29T07:53:04.469Z,53169.84
2023-10-29T07:58:10.179Z,53173.84
2023-10-29T08:03:15.262Z,53021.81
2023-10-29T08:08:22.202Z,52993.81
2023-10-29T08:13:27.941Z,53059.81
2023-10-29T08:18:34.794Z,52927.78
2023-10-29T08:23:39.210Z,53025.81
2023-10-29T08:28:44.848Z,52989.81
2023-10-29T08:33:49.080Z,52969.81
2023-10-29T08:38:53.337Z,53011.81
2023-10-29T08:43:59.091Z,52903.78
2023-10-29T08:49:03.306Z,52991.81
2023-10-29T08:54:08.036Z,52991.81
2023-10-29T08:59:13.729Z,53009.81
2023-10-29T09:04:18.140Z,53099.84
2023-10-29T09:09:22.581Z,53083.84
2023-10-29T09:14:28.189Z,53285.88
2023-10-29T09:19:32.774Z,53239.88
2023-10-29T09:24:41.457Z,53367.91
2023-10-29T09:29:47.903Z,53427.94
2023-10-29T09:34:52.484Z,53421.94
2023-10-29T09:39:56.742Z,53259.88
2023-10-29T09:45:05.147Z,53319.91
2023-10-29T09:50:11.704Z,53423.94
2023-10-29T09:55:16.975Z,53537.97
2023-10-29T10:00:23.002Z,53365.91
2023-10-29T10:05:29.342Z,53385.91
2023-10-29T10:10:41.703Z,53361.91
2023-10-29T10:15:49.239Z,53387.94
2023-10-29T10:21:00.291Z,53309.91
2023-10-29T10:26:05.337Z,53435.94
2023-10-29T10:31:16.347Z,53353.91
2023-10-29T10:36:33.959Z,53465.94
2023-10-29T10:41:44.733Z,53696.03
2023-10-29T10:46:54.577Z,53644.03
2023-10-29T10:52:00.429Z,53666.03
2023-10-29T10:57:09.154Z,53666.03
2023-10-29T11:02:16.671Z,53664.03
2023-10-29T11:07:21.404Z,53590.00
2023-10-29T11:12:25.732Z,53513.97
2023-10-29T11:17:58.925Z,53463.94
2023-10-29T11:23:09.303Z,53509.97
2023-10-29T11:28:46.885Z,53471.94
2023-10-29T11:34:45.815Z,53515.97
2023-10-29T11:39:50.885Z,53596.00
2023-10-29T11:45:37.278Z,53652.03
2023-10-29T11:50:47.320Z,53720.06
2023-10-29T11:55:58.868Z,53682.03
2023-10-29T12:01:03.379Z,53866.13
2023-10-29T12:06:09.226Z,53814.09
2023-10-29T12:11:14.460Z,53610.00
2023-10-29T12:16:22.915Z,53553.97
2023-10-29T12:21:28.699Z,53626.00
2023-10-29T12:26:33.091Z,53543.97
2023-10-29T12:31:37.369Z,53481.97
2023-10-29T12:36:52.713Z,53543.97
2023-10-29T12:41:57.994Z,53515.97
2023-10-29T12:47:02.328Z,53451.94
2023-10-29T12:52:14.767Z,53365.91
2023-10-29T12:57:19.552Z,53325.91
2023-10-29T13:02:26.454Z,53467.94
2023-10-29T13:07:38.558Z,53317.91
2023-10-29T13:12:46.063Z,53213.88
2023-10-29T13:17:51.012Z,53177.84
2023-10-29T13:22:56.699Z,53143.84
2023-10-29T13:28:01.342Z,53049.81
2023-10-29T13:33:05.678Z,52985.81
2023-10-29T13:38:11.648Z,52913.78
2023-10-29T13:43:15.841Z,52975.81
2023-10-29T13:48:20.127Z,53013.81
2023-10-29T13:53:26.529Z,53141.84
2023-10-29T13:58:30.782Z,53337.91
2023-10-29T14:03:35.079Z,53405.94
2023-10-29T14:08:40.853Z,53259.88
2023-10-29T14:13:46.854Z,53127.84
2023-10-29T14:18:51.352Z,52955.81
2023-10-29T14:23:57.828Z,52875.78
2023-10-29T14:29:02.254Z,52829.78
2023-10-29T14:34:07.156Z,52813.78
2023-10-29T14:39:13.253Z,52743.75
2023-10-29T14:44:17.542Z,52665.75
2023-10-29T14:49:22.429Z,52585.75
2023-10-29T14:54:28.199Z,52621.75
2023-10-29T14:59:35.997Z,52547.72
2023-10-29T15:04:40.260Z,52485.72
2023-10-29T15:09:45.992Z,52447.72
2023-10-29T15:14:52.437Z,52405.72
2023-10-29T15:19:59.038Z,52391.72
2023-10-29T15:25:07.453Z,52331.72
2023-10-29T15:30:12.379Z,52245.72
2023-10-29T15:35:16.753Z,52269.72
2023-10-29T15:40:23.011Z,52255.72
2023-10-29T15:45:27.383Z,52213.72
2023-10-29T15:50:31.712Z,52207.72
2023-10-29T15:55:37.365Z,52187.72
2023-10-29T16:00:41.776Z,52211.72
2023-10-29T16:05:46.004Z,52205.69
2023-10-29T16:10:51.699Z,52163.69
2023-10-29T16:15:55.952Z,52181.69
2023-10-29T16:21:00.332Z,52211.72
2023-10-29T16:26:06.239Z,52231.72
2023-10-29T16:31:10.514Z,52187.72
2023-10-29T16:36:15.079Z,52179.69
2023-10-29T16:41:21.043Z,52197.72
2023-10-29T16:46:25.803Z,52143.69
2023-10-29T16:51:31.504Z,52141.69
2023-10-29T16:56:37.344Z,52127.69
2023-10-29T17:01:41.609Z,52133.69
2023-10-29T17:06:46.021Z,52121.69
2023-10-29T17:11:51.653Z,52125.69
2023-10-29T17:16:55.904Z,52097.69
2023-10-29T17:22:00.251Z,52087.69
2023-10-29T17:27:06.538Z,52025.69
2023-10-29T17:32:11.473Z,51979.69
2023-10-29T17:37:19.092Z,52013.69
2023-10-29T17:42:25.431Z,52041.69
2023-10-29T17:47:29.735Z,51999.69
2023-10-29T17:52:34.700Z,52007.69
2023-10-29T17:57:40.368Z,51987.69
2023-10-29T18:02:44.599Z,51933.69
2023-10-29T18:07:49.645Z,51941.72
2023-10-29T18:12:55.269Z,51985.69
2023-10-29T18:17:59.558Z,51981.69
2023-10-29T18:23:05.666Z,51963.69
2023-10-29T18:28:11.771Z,51933.69
2023-10-29T18:33:16.883Z,51919.69
2023-10-29T18:38:21.162Z,51957.69
2023-10-29T18:43:27.991Z,51985.69
2023-10-29T18:48:32.618Z,51967.69
2023-10-29T18:53:37.037Z,51957.69
2023-10-29T18:58:42.721Z,51923.72
2023-10-29T19:03:47.032Z,51929.72
2023-10-29T19:08:51.394Z,51969.69
2023-10-29T19:13:57.120Z,51947.69
2023-10-29T19:19:02.506Z,51917.72
2023-10-29T19:24:07.549Z,51957.69
2023-10-29T19:29:13.360Z,51905.72
2023-10-29T19:34:17.581Z,51913.72
2023-10-29T19:39:22.534Z,51899.72
2023-10-29T19:44:28.908Z,51951.69
2023-10-29T19:49:34.729Z,51955.69
2023-10-29T19:54:40.456Z,51945.69
2023-10-29T19:59:48.827Z,51963.69
2023-10-29T20:04:54.825Z,51915.72
2023-10-29T20:09:59.553Z,51905.72
2023-10-29T20:15:05.736Z,51915.72
2023-10-29T20:20:12.560Z,51899.72
2023-10-29T20:25:17.013Z,51921.72
2023-10-29T20:30:24.346Z,51983.69
2023-10-29T20:35:28.696Z,51913.72
2023-10-29T20:40:33.000Z,51891.72
2023-10-29T20:45:39.066Z,51873.72
2023-10-29T20:50:51.601Z,51897.72
2023-10-29T20:55:55.894Z,51925.72
2023-10-29T21:01:04.169Z,51843.72
2023-10-29T21:06:08.694Z,51825.72
2023-10-29T21:11:16.725Z,51859.72
2023-10-29T21:16:23.927Z,51861.72
2023-10-29T21:21:28.681Z,51869.72
2023-10-29T21:26:32.947Z,51871.72
2023-10-29T21:31:38.588Z,51883.72
2023-10-29T21:36:42.816Z,51861.72
2023-10-29T21:41:47.206Z,51873.72
2023-10-29T21:46:53.273Z,51865.72
2023-10-29T21:51:57.936Z,51873.72
2023-10-29T21:57:06.343Z,51897.72
2023-10-29T22:02:12.482Z,51909.72
2023-10-29T22:07:17.107Z,51929.72
2023-10-29T22:12:21.530Z,51935.69
2023-10-29T22:17:27.839Z,51999.69
2023-10-29T22:22:34.745Z,51953.69
2023-10-29T22:27:39.005Z,51971.69
2023-10-29T22:32:45.505Z,51953.69
2023-10-29T22:37:49.814Z,51989.69
2023-10-29T22:42:53.965Z,52019.69
2023-10-29T22:48:00.056Z,52011.69
2023-10-29T22:53:04.487Z,52059.69
2023-10-29T22:58:08.923Z,52021.69
2023-10-29T23:03:14.622Z,52055.69
2023-10-29T23:08:19.392Z,52069.69
2023-10-29T23:13:25.929Z,52089.69
2023-10-29T23:18:31.960Z,52065.69
2023-10-29T23:23:36.227Z,52109.69
2023-10-29T23:28:40.541Z,52103.69
2023-10-29T23:33:46.219Z,52133.69
2023-10-29T23:38:50.604Z,52145.69
2023-10-29T23:43:55.530Z,52185.69
2023-10-29T23:49:01.221Z,52145.69
2023-10-29T23:54:05.855Z,52185.69
2023-10-29T23:59:10.202Z,52147.69
